EGGPEGAC

Guest
Details From EGGP - Liverpool
To EGAC - Belfast City
Flight Number -
Tags generated
Created
Modified
Stats Distance 132 nm / 244 km
Max Altitude 12,000 ft / 3,658 m
Waypoints 3
Social Downloads 1
Likes 0
Share VATSIM

Download

Looking for another format? Having issues loading an existing format? Contact us
Advertisement - Login to hide

Notes

Basic altitude profile: - Ascent Rate: 2500ft/min - Ascent Speed: 250kts - Cruise Altitude: 27000ft - Cruise Speed: 310kts - Descent Rate: 2000ft/min - Descent Speed: 280kts Options: - Use NATs: no - Use PACOTS: no - Use low airways: no - Use high airways: yes

Route

EGGP PENIL EGAC

ID Type Via Altitude Latitude Longitude Leg Dist Tot Dist Heading (true) Name
O EGGP APT - 0 ft / 0 m 53.33363˚ -2.84977˚ - 0 nm - Liverpool
PENIL FIX - 12,000 ft / 3,658 m 53.61611˚ -3.66361˚ 33 nm 33 nm 301° / 300° -
O EGAC APT - 0 ft / 0 m 54.61811˚ -5.87258˚ 98 nm 131 nm 309° / 307° Belfast City

Altitude Profile

Advertisement - Login to hide

EGGP

Details ICAO EGGP (LPL)
Name Liverpool
Region United Kingdom
Timezone Europe/London (UTC+1.0)
Stats Elevation 80 ft / 24 m (AMSL)
Location 53.333632° -2.849769°
Runways 1
Magnetic Variation 1.605° W

METAR

EGGP 230020Z 06009KT CAVOK 10/07 Q1024

Decode

TAF

TAF TAF EGGP 222257Z 2300/2324 07007KT CAVOK PROB30 TEMPO 2300/2309 8000

Decode

Departure Runways

ID Width Length Bearing (true) Bearing (mag) Surface Threshold Offset Overrun Length
09 151 ft / 46 m 7,466 ft / 2,276 m 85.59° 87.20° Asphalt 180 ft / 55 m 0 ft / 0 m
27 151 ft / 46 m 7,466 ft / 2,276 m 265.61° 267.22° Asphalt 0 ft / 0 m 0 ft / 0 m

EGAC

Details ICAO EGAC (BHD)
Name Belfast City
Region United Kingdom
Timezone Europe/London (UTC+1.0)
Stats Elevation 15 ft / 5 m (AMSL)
Location 54.618108° -5.872575°
Runways 1
Magnetic Variation 3.017° W

METAR

EGAC 230020Z AUTO VRB01KT 9999 NCD 10/08 Q1025

Decode

TAF

Not found

Destination Runways

ID Width Length Bearing (true) Bearing (mag) Surface Threshold Offset Overrun Length
04 148 ft / 45 m 6,009 ft / 1,832 m 34.93° 37.95° Asphalt 302 ft / 92 m 0 ft / 0 m
22 148 ft / 45 m 6,009 ft / 1,832 m 214.94° 217.96° Asphalt 0 ft / 0 m 0 ft / 0 m

Approach Navaids

Runway Type Ident Frequency Range Bearing (true) Bearing (mag) Slope Elevation
04 Localiser HBD 108.10 MHz 18 nm / 33 km 34.92° 37.94° - 15 ft / 5 m (AMSL)
04 DME HBD 108.10 MHz 18 nm / 33 km - - - 30 ft / 9 m (AMSL)
22 Localiser IBFH 108.10 MHz 18 nm / 33 km 214.69° 217.71° - 15 ft / 5 m (AMSL)
22 Glidescope IBFH 108.10 MHz 10 nm / 19 km 214.94° 217.95° 3.00° 50 ft / 15 m (AMSL)
22 DME IBFH 108.10 MHz 18 nm / 33 km - - - 30 ft / 9 m (AMSL)

Popular Alternatives